sensor_id;sensor_type;location;lat;lon;timestamp;temperature;humidity
52381;DHT22;38310;52.796;6.942;2023-02-11T00:01:30;6.50;99.90
52381;DHT22;38310;52.796;6.942;2023-02-11T00:03:57;6.50;99.90
52381;DHT22;38310;52.796;6.942;2023-02-11T00:06:24;6.50;99.90
52381;DHT22;38310;52.796;6.942;2023-02-11T00:08:51;6.50;99.90
52381;DHT22;38310;52.796;6.942;2023-02-11T00:11:18;6.90;99.90
52381;DHT22;38310;52.796;6.942;2023-02-11T00:13:44;6.50;99.90
52381;DHT22;38310;52.796;6.942;2023-02-11T00:16:14;6.50;99.90
52381;DHT22;38310;52.796;6.942;2023-02-11T00:18:40;6.50;99.90
52381;DHT22;38310;52.796;6.942;2023-02-11T00:21:16;6.50;99.90
52381;DHT22;38310;52.796;6.942;2023-02-11T00:23:43;6.50;99.90
52381;DHT22;38310;52.796;6.942;2023-02-11T00:28:41;6.50;99.90
52381;DHT22;38310;52.796;6.942;2023-02-11T00:31:07;6.50;99.90
52381;DHT22;38310;52.796;6.942;2023-02-11T00:33:33;6.50;99.90
52381;DHT22;38310;52.796;6.942;2023-02-11T00:36:03;6.60;99.90
52381;DHT22;38310;52.796;6.942;2023-02-11T00:38:30;6.50;99.90
52381;DHT22;38310;52.796;6.942;2023-02-11T00:40:55;6.50;99.90
52381;DHT22;38310;52.796;6.942;2023-02-11T00:43:21;6.50;99.90
52381;DHT22;38310;52.796;6.942;2023-02-11T00:45:47;6.50;99.90
52381;DHT22;38310;52.796;6.942;2023-02-11T00:48:12;6.50;99.90
52381;DHT22;38310;52.796;6.942;2023-02-11T00:50:38;6.70;99.90
52381;DHT22;38310;52.796;6.942;2023-02-11T00:53:04;6.60;99.90
52381;DHT22;38310;52.796;6.942;2023-02-11T00:55:30;6.60;99.90
52381;DHT22;38310;52.796;6.942;2023-02-11T00:57:55;6.50;99.90
52381;DHT22;38310;52.796;6.942;2023-02-11T01:00:23;6.60;99.90
52381;DHT22;38310;52.796;6.942;2023-02-11T01:02:48;6.60;99.90
52381;DHT22;38310;52.796;6.942;2023-02-11T01:05:14;6.60;99.90
52381;DHT22;38310;52.796;6.942;2023-02-11T01:07:40;6.60;99.90
52381;DHT22;38310;52.796;6.942;2023-02-11T01:10:06;6.60;99.90
52381;DHT22;38310;52.796;6.942;2023-02-11T01:12:31;6.60;99.90
52381;DHT22;38310;52.796;6.942;2023-02-11T01:14:58;6.60;99.90
52381;DHT22;38310;52.796;6.942;2023-02-11T01:17:23;6.60;99.90
52381;DHT22;38310;52.796;6.942;2023-02-11T01:19:49;7.00;99.90
52381;DHT22;38310;52.796;6.942;2023-02-11T01:22:14;6.60;99.90
52381;DHT22;38310;52.796;6.942;2023-02-11T01:24:40;6.80;99.90
52381;DHT22;38310;52.796;6.942;2023-02-11T01:27:07;7.10;99.90
52381;DHT22;38310;52.796;6.942;2023-02-11T01:29:32;6.60;99.90
52381;DHT22;38310;52.796;6.942;2023-02-11T01:31:59;6.60;99.90
52381;DHT22;38310;52.796;6.942;2023-02-11T01:34:25;6.60;99.90
52381;DHT22;38310;52.796;6.942;2023-02-11T01:36:55;6.60;99.90
52381;DHT22;38310;52.796;6.942;2023-02-11T01:39:21;6.60;99.90
52381;DHT22;38310;52.796;6.942;2023-02-11T01:41:46;6.60;99.90
52381;DHT22;38310;52.796;6.942;2023-02-11T01:46:50;6.60;99.90
52381;DHT22;38310;52.796;6.942;2023-02-11T01:49:32;6.70;99.90
52381;DHT22;38310;52.796;6.942;2023-02-11T01:52:25;6.60;99.90
52381;DHT22;38310;52.796;6.942;2023-02-11T01:54:54;6.60;99.90
52381;DHT22;38310;52.796;6.942;2023-02-11T01:57:44;6.60;99.90
52381;DHT22;38310;52.796;6.942;2023-02-11T02:10:42;6.60;99.90
52381;DHT22;38310;52.796;6.942;2023-02-11T02:13:09;6.60;99.90
52381;DHT22;38310;52.796;6.942;2023-02-11T02:15:36;6.60;99.90
52381;DHT22;38310;52.796;6.942;2023-02-11T02:18:33;6.60;99.90
52381;DHT22;38310;52.796;6.942;2023-02-11T02:26:32;6.50;99.90
52381;DHT22;38310;52.796;6.942;2023-02-11T02:37:43;6.50;99.90
52381;DHT22;38310;52.796;6.942;2023-02-11T02:40:24;6.50;99.90
52381;DHT22;38310;52.796;6.942;2023-02-11T02:42:52;7.10;99.90
52381;DHT22;38310;52.796;6.942;2023-02-11T02:45:18;6.60;99.90
52381;DHT22;38310;52.796;6.942;2023-02-11T02:47:44;6.60;99.90
52381;DHT22;38310;52.796;6.942;2023-02-11T02:50:11;6.50;99.90
52381;DHT22;38310;52.796;6.942;2023-02-11T03:00:58;6.60;99.90
52381;DHT22;38310;52.796;6.942;2023-02-11T03:04:00;6.80;99.90
52381;DHT22;38310;52.796;6.942;2023-02-11T03:09:36;6.60;99.90
52381;DHT22;38310;52.796;6.942;2023-02-11T03:12:05;6.60;99.90
52381;DHT22;38310;52.796;6.942;2023-02-11T03:14:32;6.70;99.90
52381;DHT22;38310;52.796;6.942;2023-02-11T03:17:03;6.70;99.90
52381;DHT22;38310;52.796;6.942;2023-02-11T03:19:36;6.70;99.90
52381;DHT22;38310;52.796;6.942;2023-02-11T03:22:06;6.70;99.90
52381;DHT22;38310;52.796;6.942;2023-02-11T03:24:35;6.70;99.90
52381;DHT22;38310;52.796;6.942;2023-02-11T03:27:26;6.70;99.90
52381;DHT22;38310;52.796;6.942;2023-02-11T03:32:35;6.70;99.90
52381;DHT22;38310;52.796;6.942;2023-02-11T03:38:04;6.70;99.90
52381;DHT22;38310;52.796;6.942;2023-02-11T03:40:38;6.70;99.90
52381;DHT22;38310;52.796;6.942;2023-02-11T03:43:06;6.70;99.90
52381;DHT22;38310;52.796;6.942;2023-02-11T03:45:35;6.70;99.90
52381;DHT22;38310;52.796;6.942;2023-02-11T03:50:43;6.70;99.90
52381;DHT22;38310;52.796;6.942;2023-02-11T03:53:11;6.80;99.90
52381;DHT22;38310;52.796;6.942;2023-02-11T03:55:38;6.70;99.90
52381;DHT22;38310;52.796;6.942;2023-02-11T03:58:05;6.80;99.90
52381;DHT22;38310;52.796;6.942;2023-02-11T04:00:33;6.80;99.90
52381;DHT22;38310;52.796;6.942;2023-02-11T04:02:59;6.80;99.90
52381;DHT22;38310;52.796;6.942;2023-02-11T04:05:25;6.80;99.90
52381;DHT22;38310;52.796;6.942;2023-02-11T04:07:51;6.80;99.90
52381;DHT22;38310;52.796;6.942;2023-02-11T04:10:17;6.80;99.90
52381;DHT22;38310;52.796;6.942;2023-02-11T04:12:42;6.80;99.90
52381;DHT22;38310;52.796;6.942;2023-02-11T04:15:08;6.80;99.90
52381;DHT22;38310;52.796;6.942;2023-02-11T04:17:34;6.80;99.90
52381;DHT22;38310;52.796;6.942;2023-02-11T04:20:00;6.80;99.90
52381;DHT22;38310;52.796;6.942;2023-02-11T04:22:26;6.80;99.90
52381;DHT22;38310;52.796;6.942;2023-02-11T04:24:51;6.90;99.90
52381;DHT22;38310;52.796;6.942;2023-02-11T04:27:17;6.80;99.90
52381;DHT22;38310;52.796;6.942;2023-02-11T04:29:43;6.80;99.90
52381;DHT22;38310;52.796;6.942;2023-02-11T04:32:10;6.80;99.90
52381;DHT22;38310;52.796;6.942;2023-02-11T04:34:36;6.80;99.90
52381;DHT22;38310;52.796;6.942;2023-02-11T04:37:01;6.80;99.90
52381;DHT22;38310;52.796;6.942;2023-02-11T04:39:27;6.80;99.90
52381;DHT22;38310;52.796;6.942;2023-02-11T04:41:53;6.90;99.90
52381;DHT22;38310;52.796;6.942;2023-02-11T04:44:19;6.90;99.90
52381;DHT22;38310;52.796;6.942;2023-02-11T04:46:44;6.90;99.90
52381;DHT22;38310;52.796;6.942;2023-02-11T04:49:15;6.90;99.90
52381;DHT22;38310;52.796;6.942;2023-02-11T04:51:41;6.90;99.90
52381;DHT22;38310;52.796;6.942;2023-02-11T04:54:09;6.90;99.90
52381;DHT22;38310;52.796;6.942;2023-02-11T04:56:36;6.90;99.90
52381;DHT22;38310;52.796;6.942;2023-02-11T04:59:02;6.90;99.90
52381;DHT22;38310;52.796;6.942;2023-02-11T05:01:28;6.90;99.90
52381;DHT22;38310;52.796;6.942;2023-02-11T05:03:54;7.00;99.90
52381;DHT22;38310;52.796;6.942;2023-02-11T05:06:20;7.00;99.90
52381;DHT22;38310;52.796;6.942;2023-02-11T05:08:46;7.00;99.90
52381;DHT22;38310;52.796;6.942;2023-02-11T05:11:18;7.10;99.90
52381;DHT22;38310;52.796;6.942;2023-02-11T05:13:44;7.20;99.90
52381;DHT22;38310;52.796;6.942;2023-02-11T05:16:10;7.10;99.90
52381;DHT22;38310;52.796;6.942;2023-02-11T05:18:37;7.00;99.90
52381;DHT22;38310;52.796;6.942;2023-02-11T05:21:07;7.00;99.90
52381;DHT22;38310;52.796;6.942;2023-02-11T05:23:33;7.00;99.90
52381;DHT22;38310;52.796;6.942;2023-02-11T05:25:59;7.00;99.90
52381;DHT22;38310;52.796;6.942;2023-02-11T05:28:25;7.10;99.90
52381;DHT22;38310;52.796;6.942;2023-02-11T05:30:51;7.00;99.90
52381;DHT22;38310;52.796;6.942;2023-02-11T05:33:16;7.00;99.90
52381;DHT22;38310;52.796;6.942;2023-02-11T05:35:42;7.00;99.90
52381;DHT22;38310;52.796;6.942;2023-02-11T05:38:08;7.00;99.90
52381;DHT22;38310;52.796;6.942;2023-02-11T05:40:34;7.00;99.90
52381;DHT22;38310;52.796;6.942;2023-02-11T05:43:00;7.00;99.90
52381;DHT22;38310;52.796;6.942;2023-02-11T05:45:26;7.40;99.90
52381;DHT22;38310;52.796;6.942;2023-02-11T05:47:51;7.00;99.90
52381;DHT22;38310;52.796;6.942;2023-02-11T05:50:17;7.20;99.90
52381;DHT22;38310;52.796;6.942;2023-02-11T05:52:43;7.00;99.90
52381;DHT22;38310;52.796;6.942;2023-02-11T05:55:08;7.00;99.90
52381;DHT22;38310;52.796;6.942;2023-02-11T05:57:34;7.10;99.90
52381;DHT22;38310;52.796;6.942;2023-02-11T06:00:00;7.50;99.90
52381;DHT22;38310;52.796;6.942;2023-02-11T06:02:26;7.00;99.90
52381;DHT22;38310;52.796;6.942;2023-02-11T06:04:53;7.00;99.90
52381;DHT22;38310;52.796;6.942;2023-02-11T06:07:18;7.00;99.90
52381;DHT22;38310;52.796;6.942;2023-02-11T06:09:44;7.00;99.90
52381;DHT22;38310;52.796;6.942;2023-02-11T06:12:10;7.00;99.90
52381;DHT22;38310;52.796;6.942;2023-02-11T06:14:36;6.00;99.90
52381;DHT22;38310;52.796;6.942;2023-02-11T06:17:01;7.00;99.90
52381;DHT22;38310;52.796;6.942;2023-02-11T06:19:27;7.00;99.90
52381;DHT22;38310;52.796;6.942;2023-02-11T06:21:55;7.00;99.90
52381;DHT22;38310;52.796;6.942;2023-02-11T06:24:20;7.00;99.90
52381;DHT22;38310;52.796;6.942;2023-02-11T06:26:46;7.00;99.90
52381;DHT22;38310;52.796;6.942;2023-02-11T06:29:12;7.00;99.90
52381;DHT22;38310;52.796;6.942;2023-02-11T06:31:38;7.00;99.90
52381;DHT22;38310;52.796;6.942;2023-02-11T06:34:08;7.00;99.90
52381;DHT22;38310;52.796;6.942;2023-02-11T06:36:35;7.00;99.90
52381;DHT22;38310;52.796;6.942;2023-02-11T06:39:01;7.00;99.90
52381;DHT22;38310;52.796;6.942;2023-02-11T06:41:27;7.00;99.90
52381;DHT22;38310;52.796;6.942;2023-02-11T06:43:53;7.00;99.90
52381;DHT22;38310;52.796;6.942;2023-02-11T06:46:19;7.00;99.90
52381;DHT22;38310;52.796;6.942;2023-02-11T06:48:44;7.10;99.90
52381;DHT22;38310;52.796;6.942;2023-02-11T06:51:12;7.00;99.90
52381;DHT22;38310;52.796;6.942;2023-02-11T06:53:40;7.00;99.90
52381;DHT22;38310;52.796;6.942;2023-02-11T06:56:09;7.00;99.90
52381;DHT22;38310;52.796;6.942;2023-02-11T06:58:35;7.10;99.90
52381;DHT22;38310;52.796;6.942;2023-02-11T07:01:05;7.00;99.90
52381;DHT22;38310;52.796;6.942;2023-02-11T07:03:33;7.00;99.90
52381;DHT22;38310;52.796;6.942;2023-02-11T07:06:01;7.10;99.90
52381;DHT22;38310;52.796;6.942;2023-02-11T07:08:27;7.00;99.90
52381;DHT22;38310;52.796;6.942;2023-02-11T07:10:52;7.10;99.90
52381;DHT22;38310;52.796;6.942;2023-02-11T07:13:18;7.00;99.90
52381;DHT22;38310;52.796;6.942;2023-02-11T07:15:44;7.10;99.90
52381;DHT22;38310;52.796;6.942;2023-02-11T07:18:09;7.10;99.90
52381;DHT22;38310;52.796;6.942;2023-02-11T07:20:36;7.10;99.90
52381;DHT22;38310;52.796;6.942;2023-02-11T07:23:03;7.10;99.90
52381;DHT22;38310;52.796;6.942;2023-02-11T07:25:30;7.10;99.90
52381;DHT22;38310;52.796;6.942;2023-02-11T07:27:55;7.10;99.90
52381;DHT22;38310;52.796;6.942;2023-02-11T07:30:21;7.10;99.90
52381;DHT22;38310;52.796;6.942;2023-02-11T07:32:47;7.10;99.90
52381;DHT22;38310;52.796;6.942;2023-02-11T07:35:13;7.10;99.90
52381;DHT22;38310;52.796;6.942;2023-02-11T07:37:39;7.10;99.90
52381;DHT22;38310;52.796;6.942;2023-02-11T07:40:06;7.20;99.90
52381;DHT22;38310;52.796;6.942;2023-02-11T07:42:35;7.10;99.90
52381;DHT22;38310;52.796;6.942;2023-02-11T07:45:01;7.10;99.90
52381;DHT22;38310;52.796;6.942;2023-02-11T07:47:27;7.10;99.90
52381;DHT22;38310;52.796;6.942;2023-02-11T07:49:53;7.10;99.90
52381;DHT22;38310;52.796;6.942;2023-02-11T07:52:19;8.50;99.90
52381;DHT22;38310;52.796;6.942;2023-02-11T07:54:45;7.20;99.90
52381;DHT22;38310;52.796;6.942;2023-02-11T07:57:12;7.20;99.90
52381;DHT22;38310;52.796;6.942;2023-02-11T07:59:38;6.40;99.90
52381;DHT22;38310;52.796;6.942;2023-02-11T08:02:03;7.30;99.90
52381;DHT22;38310;52.796;6.942;2023-02-11T08:04:29;7.30;99.90
52381;DHT22;38310;52.796;6.942;2023-02-11T08:06:55;7.30;99.90
52381;DHT22;38310;52.796;6.942;2023-02-11T08:09:22;7.30;99.90
52381;DHT22;38310;52.796;6.942;2023-02-11T08:11:48;7.30;99.90
52381;DHT22;38310;52.796;6.942;2023-02-11T08:14:14;7.30;99.90
52381;DHT22;38310;52.796;6.942;2023-02-11T08:16:40;7.30;99.90
52381;DHT22;38310;52.796;6.942;2023-02-11T08:19:14;7.40;99.90
52381;DHT22;38310;52.796;6.942;2023-02-11T08:21:40;7.40;99.90
52381;DHT22;38310;52.796;6.942;2023-02-11T08:24:07;7.40;99.90
52381;DHT22;38310;52.796;6.942;2023-02-11T08:26:33;7.30;99.90
52381;DHT22;38310;52.796;6.942;2023-02-11T08:29:01;7.40;99.90
52381;DHT22;38310;52.796;6.942;2023-02-11T08:31:31;7.40;99.90
52381;DHT22;38310;52.796;6.942;2023-02-11T08:33:57;7.40;99.90
52381;DHT22;38310;52.796;6.942;2023-02-11T08:36:25;7.40;99.90
52381;DHT22;38310;52.796;6.942;2023-02-11T08:38:56;7.50;99.90
52381;DHT22;38310;52.796;6.942;2023-02-11T08:41:24;7.50;99.90
52381;DHT22;38310;52.796;6.942;2023-02-11T08:43:50;7.50;99.90
52381;DHT22;38310;52.796;6.942;2023-02-11T08:46:18;7.50;99.90
52381;DHT22;38310;52.796;6.942;2023-02-11T08:48:45;7.60;99.90
52381;DHT22;38310;52.796;6.942;2023-02-11T08:51:18;7.60;99.90
52381;DHT22;38310;52.796;6.942;2023-02-11T08:53:44;7.60;99.90
52381;DHT22;38310;52.796;6.942;2023-02-11T08:56:11;7.60;99.90
52381;DHT22;38310;52.796;6.942;2023-02-11T08:58:37;7.60;99.90
52381;DHT22;38310;52.796;6.942;2023-02-11T09:01:11;7.70;99.90
52381;DHT22;38310;52.796;6.942;2023-02-11T09:03:36;7.70;99.90
52381;DHT22;38310;52.796;6.942;2023-02-11T09:06:05;7.70;99.90
52381;DHT22;38310;52.796;6.942;2023-02-11T09:08:34;7.70;99.90
52381;DHT22;38310;52.796;6.942;2023-02-11T09:11:01;7.70;99.90
52381;DHT22;38310;52.796;6.942;2023-02-11T09:13:27;7.80;99.90
52381;DHT22;38310;52.796;6.942;2023-02-11T09:15:52;8.90;99.90
52381;DHT22;38310;52.796;6.942;2023-02-11T09:18:18;7.80;99.90
52381;DHT22;38310;52.796;6.942;2023-02-11T09:20:43;7.80;99.90
52381;DHT22;38310;52.796;6.942;2023-02-11T09:23:09;7.80;99.90
52381;DHT22;38310;52.796;6.942;2023-02-11T09:25:38;7.90;99.90
52381;DHT22;38310;52.796;6.942;2023-02-11T09:28:05;7.90;99.90
52381;DHT22;38310;52.796;6.942;2023-02-11T09:30:31;7.90;99.90
52381;DHT22;38310;52.796;6.942;2023-02-11T09:32:57;8.00;99.90
52381;DHT22;38310;52.796;6.942;2023-02-11T09:35:22;7.90;99.90
52381;DHT22;38310;52.796;6.942;2023-02-11T09:37:48;8.00;99.90
52381;DHT22;38310;52.796;6.942;2023-02-11T09:40:14;8.00;99.90
52381;DHT22;38310;52.796;6.942;2023-02-11T09:45:23;8.00;99.90
52381;DHT22;38310;52.796;6.942;2023-02-11T09:47:55;8.00;99.90
52381;DHT22;38310;52.796;6.942;2023-02-11T09:50:35;8.10;99.90
52381;DHT22;38310;52.796;6.942;2023-02-11T09:53:10;8.10;99.90
52381;DHT22;38310;52.796;6.942;2023-02-11T09:55:44;8.10;99.90
52381;DHT22;38310;52.796;6.942;2023-02-11T09:58:32;8.10;99.90
52381;DHT22;38310;52.796;6.942;2023-02-11T10:06:45;8.20;99.90
52381;DHT22;38310;52.796;6.942;2023-02-11T10:12:10;8.20;99.90
52381;DHT22;38310;52.796;6.942;2023-02-11T10:14:44;8.20;99.90
52381;DHT22;38310;52.796;6.942;2023-02-11T10:23:14;8.30;99.90
52381;DHT22;38310;52.796;6.942;2023-02-11T10:25:47;8.30;99.90
52381;DHT22;38310;52.796;6.942;2023-02-11T10:28:20;8.40;99.90
52381;DHT22;38310;52.796;6.942;2023-02-11T10:33:36;8.60;99.90
52381;DHT22;38310;52.796;6.942;2023-02-11T10:36:06;8.60;99.90
52381;DHT22;38310;52.796;6.942;2023-02-11T10:38:33;8.70;99.90
52381;DHT22;38310;52.796;6.942;2023-02-11T10:41:00;8.70;99.90
52381;DHT22;38310;52.796;6.942;2023-02-11T10:43:27;8.70;99.90
52381;DHT22;38310;52.796;6.942;2023-02-11T10:45:55;8.80;99.90
52381;DHT22;38310;52.796;6.942;2023-02-11T10:48:48;8.80;99.90
52381;DHT22;38310;52.796;6.942;2023-02-11T10:53:50;8.90;99.90
52381;DHT22;38310;52.796;6.942;2023-02-11T10:56:26;8.90;99.90
52381;DHT22;38310;52.796;6.942;2023-02-11T10:59:01;9.10;99.90
52381;DHT22;38310;52.796;6.942;2023-02-11T11:01:47;9.10;99.90
52381;DHT22;38310;52.796;6.942;2023-02-11T11:04:31;9.10;99.90
52381;DHT22;38310;52.796;6.942;2023-02-11T11:09:58;9.20;99.90
52381;DHT22;38310;52.796;6.942;2023-02-11T11:15:43;9.30;99.90
52381;DHT22;38310;52.796;6.942;2023-02-11T11:17:50;9.20;99.90
52381;DHT22;38310;52.796;6.942;2023-02-11T11:20:28;9.20;99.90
52381;DHT22;38310;52.796;6.942;2023-02-11T11:25:44;9.20;99.90
52381;DHT22;38310;52.796;6.942;2023-02-11T11:28:23;9.20;99.90
52381;DHT22;38310;52.796;6.942;2023-02-11T11:30:51;9.30;99.90
52381;DHT22;38310;52.796;6.942;2023-02-11T11:33:25;9.20;99.90
52381;DHT22;38310;52.796;6.942;2023-02-11T11:36:10;9.20;99.90
52381;DHT22;38310;52.796;6.942;2023-02-11T11:38:37;9.20;99.90
52381;DHT22;38310;52.796;6.942;2023-02-11T11:41:26;9.20;99.90
52381;DHT22;38310;52.796;6.942;2023-02-11T11:44:02;9.20;99.90
52381;DHT22;38310;52.796;6.942;2023-02-11T11:46:34;9.20;99.90
52381;DHT22;38310;52.796;6.942;2023-02-11T11:49:29;9.20;99.90
52381;DHT22;38310;52.796;6.942;2023-02-11T11:55:34;9.20;99.90
52381;DHT22;38310;52.796;6.942;2023-02-11T11:58:00;9.30;99.90
52381;DHT22;38310;52.796;6.942;2023-02-11T12:06:20;9.30;99.90
52381;DHT22;38310;52.796;6.942;2023-02-11T12:14:23;9.40;99.90
52381;DHT22;38310;52.796;6.942;2023-02-11T12:17:06;9.40;99.90
52381;DHT22;38310;52.796;6.942;2023-02-11T12:20:11;9.40;99.90
52381;DHT22;38310;52.796;6.942;2023-02-11T12:25:29;9.50;99.90
52381;DHT22;38310;52.796;6.942;2023-02-11T12:36:15;9.60;99.90
52381;DHT22;38310;52.796;6.942;2023-02-11T12:52:57;9.70;99.90
52381;DHT22;38310;52.796;6.942;2023-02-11T12:55:29;9.80;99.90
52381;DHT22;38310;52.796;6.942;2023-02-11T12:57:57;9.80;99.90
52381;DHT22;38310;52.796;6.942;2023-02-11T13:00:39;9.80;99.90
52381;DHT22;38310;52.796;6.942;2023-02-11T13:03:21;9.00;99.90
52381;DHT22;38310;52.796;6.942;2023-02-11T13:06:10;9.70;99.90
52381;DHT22;38310;52.796;6.942;2023-02-11T13:08:43;9.70;99.90
52381;DHT22;38310;52.796;6.942;2023-02-11T13:11:14;9.70;99.90
52381;DHT22;38310;52.796;6.942;2023-02-11T13:16:22;9.70;99.90
52381;DHT22;38310;52.796;6.942;2023-02-11T13:18:55;9.70;99.90
52381;DHT22;38310;52.796;6.942;2023-02-11T13:26:51;9.70;99.90
52381;DHT22;38310;52.796;6.942;2023-02-11T13:29:35;9.70;99.90
52381;DHT22;38310;52.796;6.942;2023-02-11T13:32:08;9.80;99.90
52381;DHT22;38310;52.796;6.942;2023-02-11T13:34:54;9.80;99.90
52381;DHT22;38310;52.796;6.942;2023-02-11T13:37:35;9.80;99.90
52381;DHT22;38310;52.796;6.942;2023-02-11T13:42:28;9.80;99.90
52381;DHT22;38310;52.796;6.942;2023-02-11T13:44:55;9.80;99.90
52381;DHT22;38310;52.796;6.942;2023-02-11T13:47:32;9.90;99.90
52381;DHT22;38310;52.796;6.942;2023-02-11T13:50:00;9.80;99.90
52381;DHT22;38310;52.796;6.942;2023-02-11T13:52:35;9.80;99.90
52381;DHT22;38310;52.796;6.942;2023-02-11T13:55:22;9.90;99.90
52381;DHT22;38310;52.796;6.942;2023-02-11T14:19:35;10.20;99.90
52381;DHT22;38310;52.796;6.942;2023-02-11T14:27:09;10.30;99.90
52381;DHT22;38310;52.796;6.942;2023-02-11T14:32:42;10.40;99.90
52381;DHT22;38310;52.796;6.942;2023-02-11T14:35:31;10.90;99.90
52381;DHT22;38310;52.796;6.942;2023-02-11T14:41:15;10.30;99.90
52381;DHT22;38310;52.796;6.942;2023-02-11T14:43:42;10.20;99.90
52381;DHT22;38310;52.796;6.942;2023-02-11T14:46:10;10.20;99.90
52381;DHT22;38310;52.796;6.942;2023-02-11T14:48:38;10.20;99.90
52381;DHT22;38310;52.796;6.942;2023-02-11T14:51:24;10.10;99.90
52381;DHT22;38310;52.796;6.942;2023-02-11T14:53:54;10.20;99.90
52381;DHT22;38310;52.796;6.942;2023-02-11T14:56:28;10.20;99.90
52381;DHT22;38310;52.796;6.942;2023-02-11T14:58:59;10.20;99.90
52381;DHT22;38310;52.796;6.942;2023-02-11T15:01:38;10.10;99.90
52381;DHT22;38310;52.796;6.942;2023-02-11T15:04:14;10.20;99.90
52381;DHT22;38310;52.796;6.942;2023-02-11T15:06:47;10.10;99.90
52381;DHT22;38310;52.796;6.942;2023-02-11T15:09:19;10.10;99.90
52381;DHT22;38310;52.796;6.942;2023-02-11T15:11:49;10.10;99.90
52381;DHT22;38310;52.796;6.942;2023-02-11T15:14:28;10.00;99.90
52381;DHT22;38310;52.796;6.942;2023-02-11T15:17:05;10.00;99.90
52381;DHT22;38310;52.796;6.942;2023-02-11T15:19:37;10.00;99.90
52381;DHT22;38310;52.796;6.942;2023-02-11T15:25:09;9.90;99.90
52381;DHT22;38310;52.796;6.942;2023-02-11T15:27:50;9.90;99.90
52381;DHT22;38310;52.796;6.942;2023-02-11T15:33:18;9.90;99.90
52381;DHT22;38310;52.796;6.942;2023-02-11T15:35:39;9.80;99.90
52381;DHT22;38310;52.796;6.942;2023-02-11T15:38:06;9.80;99.90
52381;DHT22;38310;52.796;6.942;2023-02-11T15:40:36;9.80;99.90
52381;DHT22;38310;52.796;6.942;2023-02-11T15:43:04;9.80;99.90
52381;DHT22;38310;52.796;6.942;2023-02-11T15:49:05;9.80;99.90
52381;DHT22;38310;52.796;6.942;2023-02-11T15:51:04;9.70;99.90
52381;DHT22;38310;52.796;6.942;2023-02-11T15:53:36;9.70;99.90
52381;DHT22;38310;52.796;6.942;2023-02-11T15:56:12;9.70;99.90
52381;DHT22;38310;52.796;6.942;2023-02-11T15:58:44;9.60;99.90
52381;DHT22;38310;52.796;6.942;2023-02-11T16:01:11;9.60;99.90
52381;DHT22;38310;52.796;6.942;2023-02-11T16:03:37;9.60;99.90
52381;DHT22;38310;52.796;6.942;2023-02-11T16:06:23;9.50;99.90
52381;DHT22;38310;52.796;6.942;2023-02-11T16:08:57;8.80;99.90
52381;DHT22;38310;52.796;6.942;2023-02-11T16:11:31;9.90;99.90
52381;DHT22;38310;52.796;6.942;2023-02-11T16:13:59;9.50;99.90
52381;DHT22;38310;52.796;6.942;2023-02-11T16:16:31;9.50;99.90
52381;DHT22;38310;52.796;6.942;2023-02-11T16:19:02;9.40;99.90
52381;DHT22;38310;52.796;6.942;2023-02-11T16:21:36;9.40;99.90
52381;DHT22;38310;52.796;6.942;2023-02-11T16:24:13;9.40;99.90
52381;DHT22;38310;52.796;6.942;2023-02-11T16:26:50;9.30;99.90
52381;DHT22;38310;52.796;6.942;2023-02-11T16:29:23;9.30;99.90
52381;DHT22;38310;52.796;6.942;2023-02-11T16:31:50;9.30;99.90
52381;DHT22;38310;52.796;6.942;2023-02-11T16:34:19;9.20;99.90
52381;DHT22;38310;52.796;6.942;2023-02-11T16:36:46;9.20;99.90
52381;DHT22;38310;52.796;6.942;2023-02-11T16:39:12;9.20;99.90
52381;DHT22;38310;52.796;6.942;2023-02-11T16:41:38;9.20;99.90
52381;DHT22;38310;52.796;6.942;2023-02-11T16:44:04;9.20;99.90
52381;DHT22;38310;52.796;6.942;2023-02-11T16:46:31;9.10;99.90
52381;DHT22;38310;52.796;6.942;2023-02-11T16:49:06;9.20;99.90
52381;DHT22;38310;52.796;6.942;2023-02-11T16:51:33;9.10;99.90
52381;DHT22;38310;52.796;6.942;2023-02-11T16:53:58;9.10;99.90
52381;DHT22;38310;52.796;6.942;2023-02-11T16:56:25;9.10;99.90
52381;DHT22;38310;52.796;6.942;2023-02-11T16:58:51;9.00;99.90
52381;DHT22;38310;52.796;6.942;2023-02-11T17:01:17;9.00;99.90
52381;DHT22;38310;52.796;6.942;2023-02-11T17:03:42;9.00;99.90
52381;DHT22;38310;52.796;6.942;2023-02-11T17:06:10;9.00;99.90
52381;DHT22;38310;52.796;6.942;2023-02-11T17:08:38;9.00;99.90
52381;DHT22;38310;52.796;6.942;2023-02-11T17:11:04;8.90;99.90
52381;DHT22;38310;52.796;6.942;2023-02-11T17:13:31;8.90;99.90
52381;DHT22;38310;52.796;6.942;2023-02-11T17:15:57;9.00;99.90
52381;DHT22;38310;52.796;6.942;2023-02-11T17:18:23;8.90;99.90
52381;DHT22;38310;52.796;6.942;2023-02-11T17:20:49;8.80;99.90
52381;DHT22;38310;52.796;6.942;2023-02-11T17:23:15;8.80;99.90
52381;DHT22;38310;52.796;6.942;2023-02-11T17:25:40;8.80;99.90
52381;DHT22;38310;52.796;6.942;2023-02-11T17:28:07;8.80;99.90
52381;DHT22;38310;52.796;6.942;2023-02-11T17:30:33;8.70;99.90
52381;DHT22;38310;52.796;6.942;2023-02-11T17:32:59;8.70;99.90
52381;DHT22;38310;52.796;6.942;2023-02-11T17:35:25;8.70;99.90
52381;DHT22;38310;52.796;6.942;2023-02-11T17:37:51;8.70;99.90
52381;DHT22;38310;52.796;6.942;2023-02-11T17:40:16;8.60;99.90
52381;DHT22;38310;52.796;6.942;2023-02-11T17:42:42;8.50;99.90
52381;DHT22;38310;52.796;6.942;2023-02-11T17:45:08;8.80;99.90
52381;DHT22;38310;52.796;6.942;2023-02-11T17:47:34;8.60;99.90
52381;DHT22;38310;52.796;6.942;2023-02-11T17:50:00;8.60;99.90
52381;DHT22;38310;52.796;6.942;2023-02-11T17:52:27;8.60;99.90
52381;DHT22;38310;52.796;6.942;2023-02-11T17:54:54;8.60;99.90
52381;DHT22;38310;52.796;6.942;2023-02-11T17:57:19;8.60;99.90
52381;DHT22;38310;52.796;6.942;2023-02-11T17:59:45;8.50;99.90
52381;DHT22;38310;52.796;6.942;2023-02-11T18:02:12;8.50;99.90
52381;DHT22;38310;52.796;6.942;2023-02-11T18:04:38;8.40;99.90
52381;DHT22;38310;52.796;6.942;2023-02-11T18:07:04;8.50;99.90
52381;DHT22;38310;52.796;6.942;2023-02-11T18:09:30;8.50;99.90
52381;DHT22;38310;52.796;6.942;2023-02-11T18:12:00;8.40;99.90
52381;DHT22;38310;52.796;6.942;2023-02-11T18:14:26;8.40;99.90
52381;DHT22;38310;52.796;6.942;2023-02-11T18:16:52;8.40;99.90
52381;DHT22;38310;52.796;6.942;2023-02-11T18:19:18;8.40;99.90
52381;DHT22;38310;52.796;6.942;2023-02-11T18:21:43;8.30;99.90
52381;DHT22;38310;52.796;6.942;2023-02-11T18:24:10;8.30;99.90
52381;DHT22;38310;52.796;6.942;2023-02-11T18:26:36;8.30;99.90
52381;DHT22;38310;52.796;6.942;2023-02-11T18:29:03;9.10;99.90
52381;DHT22;38310;52.796;6.942;2023-02-11T18:31:29;8.30;99.90
52381;DHT22;38310;52.796;6.942;2023-02-11T18:33:55;8.30;99.90
52381;DHT22;38310;52.796;6.942;2023-02-11T18:36:22;8.20;99.90
52381;DHT22;38310;52.796;6.942;2023-02-11T18:38:48;8.20;99.90
52381;DHT22;38310;52.796;6.942;2023-02-11T18:41:14;8.20;99.90
52381;DHT22;38310;52.796;6.942;2023-02-11T18:43:40;8.20;99.90
52381;DHT22;38310;52.796;6.942;2023-02-11T18:46:07;8.20;99.90
52381;DHT22;38310;52.796;6.942;2023-02-11T18:48:33;8.20;99.90
52381;DHT22;38310;52.796;6.942;2023-02-11T18:50:59;8.20;99.90